KEMP

Emporia Municipal Airport

Emporia, Kansas, USA
METAR KEMP 221653Z AUTO 19006KT 10SM SCT028 26/19 A3004 RMK AO2 SLP165 T02610194 TSNO
Observed Flight Rules
May-22 @ 16:53 UTC (an hour ago) Visual Flight Rules
Wind Visibility Clouds
190° at 6 knots 10 miles
  • Scattered at 2,800' AGL
Temperatures Readings
Current 26°C / 79°F
Dewpoint 19°C / 66°F
Humidity 65%
Altimeter 30.04" Hg
Pressure 1016.5 hPa
Elevation 367
METAR KEMP 221653Z AUTO 19006KT 10SM SCT028 26/19 A3004 RMK AO2 SLP165 T02610194 TSNO
Observed Flight Rules
May-22 @ 16:53 UTC
(an hour ago)
VFR
Wind Visibility
190° at 6 knots 10 miles
Clouds
  • Scattered at 2,800' AGL
Temperature Dewpoint
26°C / 79°F 19°C / 66°F
Humidity Altimeter Pressure
65% 30.04" Hg 1016.5 hPa